Deerton, Michigan
Current Conditions -  °F | °C
As of 11:50 AM on Thursday 30 Oct 2014 (Local Time) from KSAW Reporting Station
Overcast Overcast  
Wind Chill: 34°   Ceiling: 2700
Heat Index: 39°   Visibility: 10mi
Dew Point: 34°   Wind: 7mph
Humidity: 81%   Direction: 260°W
Pressure: 30.02"   Gusts: NA
Location:  46.47°N, 87.04°W
Report Text: KSAW 301550Z 26006KT 10SM SCT016 OVC027 04/01 A3002
Loading
Personal Weather Stations






























Interactive Weather Map
Tropical Storm Tracking
New forecast layout! Learn more

10-Day Weather Forecast

Advertisements
Track Severe Weather on mobile